Time;durP1;ratioP1;P1;durP2;ratioP2;P2;SDS_P1;SDS_P2;PMS_P1;PMS_P2;Temp;Humidity;BMP_temperature;BMP_pressure;BME280_temperature;BME280_humidity;BME280_pressure;Samples;Min_cycle;Max_cycle;Signal;HPM_P1;HPM_P2
2022/01/13 00:00:06;;;;;;;21.05;6.70;;;4.50;99.90;;;;;;5037379;28;20029;-82
2022/01/13 00:02:34;;;;;;;14.60;6.35;;;4.50;99.90;;;;;;5041201;28;20071;-82
2022/01/13 00:05:00;;;;;;;20.80;6.57;;;4.60;99.90;;;;;;5046690;28;20025;-82
2022/01/13 00:07:25;;;;;;;18.15;7.03;;;4.60;99.90;;;;;;5057099;28;20021;-82
2022/01/13 00:09:51;;;;;;;21.30;6.30;;;4.50;99.90;;;;;;5057151;28;20069;-82
2022/01/13 00:12:19;;;;;;;28.52;7.45;;;4.70;99.90;;;;;;5046824;28;20571;-82
2022/01/13 00:15:08;;;;;;;21.90;6.97;;;4.70;99.90;;;;;;5037538;28;20037;-82
2022/01/13 00:17:56;;;;;;;56.70;9.70;;;4.50;99.90;;;;;;5041446;28;20074;-82
2022/01/13 00:25:37;;;;;;;32.78;7.80;;;4.80;99.90;;;;;;5056015;28;20060;-82
2022/01/13 00:28:08;;;;;;;21.13;7.30;;;4.80;99.90;;;;;;5056099;28;20017;-82
2022/01/13 00:30:33;;;;;;;42.95;9.40;;;4.90;99.90;;;;;;5056723;28;20116;-82
2022/01/13 00:33:00;;;;;;;26.10;8.07;;;4.80;99.90;;;;;;5056145;28;20099;-82
2022/01/13 00:35:26;;;;;;;25.02;7.13;;;4.70;99.90;;;;;;5051441;28;20436;-82
2022/01/13 00:37:51;;;;;;;26.27;7.55;;;4.80;99.90;;;;;;5042662;28;20025;-82
2022/01/13 00:40:17;;;;;;;18.20;7.10;;;4.70;99.90;;;;;;5046440;28;20017;-82
2022/01/13 00:42:43;;;;;;;19.65;7.78;;;4.80;99.90;;;;;;5036700;28;20420;-82
2022/01/13 00:45:13;;;;;;;21.73;7.30;;;4.60;99.90;;;;;;5036703;28;20041;-82
2022/01/13 00:47:40;;;;;;;22.17;7.55;;;4.70;99.90;;;;;;5036419;28;20013;-82
2022/01/13 00:50:06;;;;;;;26.27;8.63;;;4.80;99.90;;;;;;5043986;28;20025;-82
2022/01/13 00:52:32;;;;;;;23.88;6.95;;;4.80;99.90;;;;;;5051815;28;20116;-82
2022/01/13 00:54:58;;;;;;;35.35;7.88;;;4.80;99.90;;;;;;5056089;28;20096;-82
2022/01/13 00:57:27;;;;;;;37.88;8.63;;;4.50;99.90;;;;;;5056278;28;20013;-82
2022/01/13 00:59:53;;;;;;;22.08;7.70;;;4.60;99.90;;;;;;5056135;28;20032;-82
2022/01/13 01:02:19;;;;;;;21.55;8.00;;;4.50;99.90;;;;;;5042516;28;20080;-82
2022/01/13 01:04:44;;;;;;;36.45;7.05;;;4.60;99.90;;;;;;5055485;28;20058;-82
2022/01/13 01:07:10;;;;;;;36.15;7.32;;;4.40;99.90;;;;;;5054988;28;20021;-82
2022/01/13 01:09:48;;;;;;;23.45;6.97;;;4.30;99.90;;;;;;5055694;28;20080;-82
2022/01/13 01:12:15;;;;;;;37.67;7.20;;;4.10;99.90;;;;;;5056540;28;20082;-82
2022/01/13 01:14:46;;;;;;;41.00;7.28;;;4.30;99.90;;;;;;5056307;28;20017;-82
2022/01/13 01:17:15;;;;;;;35.38;6.88;;;4.00;99.90;;;;;;5056673;28;20033;-82
2022/01/13 01:19:44;;;;;;;40.17;8.65;;;4.20;99.90;;;;;;5034494;28;20068;-82
2022/01/13 01:24:58;;;;;;;41.38;7.38;;;4.00;99.90;;;;;;5035461;28;20473;-82
2022/01/13 01:27:30;;;;;;;44.03;6.95;;;4.10;99.90;;;;;;5037473;28;20029;-82
2022/01/13 01:30:01;;;;;;;36.55;7.20;;;4.10;99.90;;;;;;5039025;28;20089;-82
2022/01/13 01:32:28;;;;;;;27.52;6.85;;;4.10;99.90;;;;;;5055673;28;20040;-82
2022/01/13 01:34:55;;;;;;;41.17;6.65;;;4.10;99.90;;;;;;5055464;28;20040;-81
2022/01/13 01:37:24;;;;;;;44.17;6.25;;;4.20;99.90;;;;;;5055683;28;20032;-82
2022/01/13 01:39:50;;;;;;;39.20;6.38;;;4.10;99.90;;;;;;5054331;28;20388;-82
2022/01/13 01:42:18;;;;;;;34.35;7.30;;;4.10;99.90;;;;;;5055443;28;20025;-82
2022/01/13 01:44:46;;;;;;;24.23;6.32;;;4.10;99.90;;;;;;5035819;28;20063;-83
2022/01/13 01:47:14;;;;;;;23.83;5.65;;;4.10;99.90;;;;;;5041764;28;20041;-82
2022/01/13 01:49:46;;;;;;;39.63;6.63;;;4.00;99.90;;;;;;5054089;28;20028;-82
2022/01/13 01:52:15;;;;;;;20.05;5.20;;;4.10;99.90;;;;;;5051538;28;20760;-82
2022/01/13 01:54:41;;;;;;;28.65;5.60;;;4.20;99.90;;;;;;5039315;28;20025;-82
2022/01/13 01:57:07;;;;;;;39.63;5.28;;;4.00;99.90;;;;;;5052982;28;20021;-82
2022/01/13 01:59:37;;;;;;;34.70;6.93;;;4.10;99.90;;;;;;5051153;28;20448;-82
2022/01/13 02:02:03;;;;;;;27.02;5.63;;;3.90;99.90;;;;;;5035241;28;20071;-82
2022/01/13 02:04:29;;;;;;;21.48;5.57;;;3.90;99.90;;;;;;5035093;28;20040;-82
2022/01/13 02:06:56;;;;;;;23.88;6.13;;;3.90;99.90;;;;;;5034956;28;20395;-82
2022/01/13 02:09:23;;;;;;;33.28;6.40;;;4.10;99.90;;;;;;5049212;28;20488;-82
2022/01/13 02:11:54;;;;;;;47.58;7.88;;;3.90;99.90;;;;;;5055720;28;20461;-82
2022/01/13 02:16:54;;;;;;;33.25;6.43;;;4.10;99.90;;;;;;5055274;28;20468;-82
2022/01/13 02:19:20;;;;;;;33.10;6.57;;;4.10;99.90;;;;;;5053586;28;20431;-82
2022/01/13 02:21:46;;;;;;;61.08;9.18;;;4.10;99.90;;;;;;5054403;28;20021;-82
2022/01/13 02:24:11;;;;;;;43.15;7.68;;;4.20;99.90;;;;;;5048162;28;20052;-82
2022/01/13 02:26:37;;;;;;;37.72;7.72;;;4.20;99.90;;;;;;5047932;28;20037;-82
2022/01/13 02:29:03;;;;;;;37.97;7.45;;;4.10;99.90;;;;;;5054282;28;20025;-82
2022/01/13 02:31:29;;;;;;;83.60;10.38;;;4.30;99.90;;;;;;5054462;28;20545;-82
2022/01/13 02:33:55;;;;;;;50.13;8.27;;;4.10;99.90;;;;;;5053057;28;20029;-82
2022/01/13 02:36:22;;;;;;;80.57;9.80;;;4.10;99.90;;;;;;5052554;28;20028;-82
2022/01/13 02:38:53;;;;;;;53.17;8.30;;;4.30;99.90;;;;;;5052695;28;20496;-82
2022/01/13 02:41:22;;;;;;;80.85;9.30;;;4.30;99.90;;;;;;5042449;28;20029;-82
2022/01/13 02:43:49;;;;;;;68.33;8.90;;;4.20;99.90;;;;;;5043972;28;20377;-82
2022/01/13 02:46:32;;;;;;;87.57;11.40;;;4.30;99.90;;;;;;5052097;28;20044;-81
2022/01/13 02:49:09;;;;;;;65.75;8.90;;;4.20;99.90;;;;;;5052623;28;20029;-82
2022/01/13 02:51:35;;;;;;;62.08;8.65;;;4.30;99.90;;;;;;5044503;28;20032;-82
2022/01/13 02:54:01;;;;;;;36.85;7.57;;;4.30;99.90;;;;;;5038647;28;20457;-82
2022/01/13 02:56:27;;;;;;;63.17;10.30;;;4.40;99.90;;;;;;5033809;28;20075;-81
2022/01/13 02:58:53;;;;;;;41.70;8.13;;;4.40;99.90;;;;;;5031895;28;20025;-82
2022/01/13 03:01:19;;;;;;;31.13;7.93;;;4.30;99.90;;;;;;5033546;28;20029;-82
2022/01/13 03:03:45;;;;;;;39.92;7.85;;;4.40;99.90;;;;;;5033768;28;20049;-82
2022/01/13 03:06:16;;;;;;;45.33;8.02;;;4.30;99.90;;;;;;5034061;28;20164;-82
2022/01/13 03:08:45;;;;;;;42.20;9.13;;;4.40;99.90;;;;;;5050331;28;20067;-82
2022/01/13 03:11:12;;;;;;;44.72;9.50;;;4.40;99.90;;;;;;5054408;28;20037;-82
2022/01/13 03:13:38;;;;;;;54.92;9.45;;;4.50;99.90;;;;;;5052330;28;20213;-82
2022/01/13 03:16:08;;;;;;;47.58;8.80;;;4.30;99.90;;;;;;5040519;28;20358;-82
2022/01/13 03:18:34;;;;;;;;;;;4.30;99.90;;;;;;5045670;28;20034;-82
2022/01/13 03:20:59;;;;;;;32.17;7.97;;;4.40;99.90;;;;;;5033403;28;19912;-82
2022/01/13 03:23:25;;;;;;;68.13;11.52;;;4.50;99.90;;;;;;5046114;28;20021;-82
2022/01/13 03:25:51;;;;;;;62.17;10.18;;;4.40;99.90;;;;;;5051501;28;20033;-82
2022/01/13 03:28:27;;;;;;;29.90;8.20;;;4.40;99.90;;;;;;5051896;28;20017;-82
2022/01/13 03:30:53;;;;;;;42.88;8.90;;;4.40;99.90;;;;;;5052183;28;20028;-81
2022/01/13 03:33:19;;;;;;;38.92;8.50;;;4.30;99.90;;;;;;5052371;28;20037;-82
2022/01/13 03:35:45;;;;;;;30.52;7.47;;;4.30;99.90;;;;;;5052668;28;20029;-82
2022/01/13 03:38:11;;;;;;;25.13;7.28;;;4.50;99.90;;;;;;5052992;28;20482;-82
2022/01/13 03:40:37;;;;;;;42.95;8.95;;;4.40;99.90;;;;;;5040534;28;20079;-82
2022/01/13 03:43:04;;;;;;;25.30;7.53;;;4.50;99.90;;;;;;5050793;28;20111;-82
2022/01/13 03:45:30;;;;;;;40.13;9.02;;;4.60;99.90;;;;;;5033682;28;20040;-82
2022/01/13 03:47:56;;;;;;;51.22;9.27;;;4.60;99.90;;;;;;5039605;28;20036;-82
2022/01/13 03:50:22;;;;;;;52.58;9.60;;;4.40;99.90;;;;;;5053366;28;20029;-82
2022/01/13 03:53:01;;;;;;;32.90;8.68;;;4.60;99.90;;;;;;5053395;28;20049;-82
2022/01/13 03:55:36;;;;;;;46.80;8.27;;;4.40;99.90;;;;;;5053142;28;20108;-82
2022/01/13 03:58:22;;;;;;;37.85;8.52;;;4.60;99.90;;;;;;5033085;28;20021;-82
2022/01/13 04:01:26;;;;;;;58.97;9.90;;;4.50;99.90;;;;;;5033254;28;20104;-82
2022/01/13 04:03:51;;;;;;;42.80;8.10;;;4.40;99.90;;;;;;5033691;28;20585;-82
2022/01/13 04:06:16;;;;;;;31.60;8.43;;;4.60;99.90;;;;;;5043528;28;20033;-82
2022/01/13 04:08:46;;;;;;;82.55;11.60;;;4.40;99.90;;;;;;5053342;28;20044;-82
2022/01/13 04:11:29;;;;;;;42.63;9.55;;;4.40;99.90;;;;;;5052695;28;20037;-82
2022/01/13 04:13:57;;;;;;;137.60;12.93;;;4.60;99.90;;;;;;5047957;28;20061;-81
2022/01/13 04:16:27;;;;;;;145.02;14.80;;;4.50;99.90;;;;;;5037206;28;20492;-82
2022/01/13 04:18:55;;;;;;;84.90;11.85;;;4.50;99.90;;;;;;5035580;28;20029;-82
2022/01/13 04:21:22;;;;;;;103.32;11.60;;;4.60;99.90;;;;;;5040002;28;20048;-82
2022/01/13 04:23:48;;;;;;;65.05;9.88;;;4.50;99.90;;;;;;5035756;28;20111;-82
2022/01/13 04:26:17;;;;;;;60.63;10.30;;;4.70;99.90;;;;;;5034473;28;20175;-82
2022/01/13 04:28:43;;;;;;;52.72;10.27;;;4.50;99.90;;;;;;5042950;28;20036;-82
2022/01/13 04:31:09;;;;;;;46.95;10.00;;;4.60;99.90;;;;;;5056027;28;20029;-82
2022/01/13 04:33:36;;;;;;;61.75;10.43;;;4.50;99.90;;;;;;5055734;28;20021;-82
2022/01/13 04:36:04;;;;;;;64.20;10.00;;;4.70;99.90;;;;;;5054539;28;20035;-82
2022/01/13 04:38:30;;;;;;;32.30;8.27;;;4.70;99.90;;;;;;5047308;28;20027;-82
2022/01/13 04:40:58;;;;;;;45.50;10.25;;;4.80;99.90;;;;;;5050849;28;20111;-82
2022/01/13 04:43:25;;;;;;;118.20;14.13;;;4.70;99.90;;;;;;5055898;28;20448;-82
2022/01/13 04:45:51;;;;;;;99.60;13.38;;;4.90;99.90;;;;;;5054222;28;20032;-82
2022/01/13 04:48:17;;;;;;;37.55;8.20;;;4.90;99.90;;;;;;5055762;28;20013;-82
2022/01/13 04:50:43;;;;;;;38.88;9.13;;;5.00;99.90;;;;;;5055636;28;20017;-81
2022/01/13 04:53:10;;;;;;;46.55;10.25;;;4.80;99.90;;;;;;5055145;28;20109;-82
2022/01/13 04:55:37;;;;;;;30.75;9.25;;;4.80;99.90;;;;;;5035555;28;20477;-82
2022/01/13 04:58:05;;;;;;;65.10;11.25;;;5.10;99.90;;;;;;5035729;28;20600;-82
2022/01/13 05:00:32;;;;;;;37.97;10.70;;;5.20;99.90;;;;;;5036162;28;20411;-82
2022/01/13 05:02:58;;;;;;;33.22;9.57;;;5.00;99.90;;;;;;5045679;28;20025;-82
2022/01/13 05:05:23;;;;;;;191.70;16.80;;;5.30;99.90;;;;;;5039725;28;20030;-82
2022/01/13 05:07:50;;;;;;;38.35;10.73;;;5.10;99.90;;;;;;5054615;28;20021;-82
2022/01/13 05:10:16;;;;;;;56.22;11.60;;;5.10;99.90;;;;;;5052635;28;20058;-82
2022/01/13 05:12:44;;;;;;;34.28;10.27;;;5.20;99.90;;;;;;5036002;28;20032;-82
2022/01/13 05:15:22;;;;;;;37.65;11.13;;;5.50;99.90;;;;;;5036346;28;20075;-82
2022/01/13 05:20:20;;;;;;;53.67;12.57;;;5.60;99.90;;;;;;5035567;28;20036;-82
2022/01/13 05:22:47;;;;;;;45.95;13.52;;;5.60;99.90;;;;;;5035696;28;20033;-82
2022/01/13 05:25:13;;;;;;;43.72;12.77;;;5.60;99.90;;;;;;5050095;28;20370;-82
2022/01/13 05:27:39;;;;;;;41.58;13.73;;;5.90;99.90;;;;;;5041222;28;20025;-82
2022/01/13 05:30:07;;;;;;;47.42;13.27;;;5.70;99.90;;;;;;5046098;28;20362;-82
2022/01/13 05:32:32;;;;;;;48.63;13.45;;;6.00;99.90;;;;;;5057090;28;20021;-82
2022/01/13 05:34:59;;;;;;;42.20;13.27;;;5.80;99.90;;;;;;5051861;28;20018;-82
2022/01/13 05:37:24;;;;;;;54.97;13.20;;;5.90;99.90;;;;;;5035533;28;20537;-83
2022/01/13 05:43:43;;;;;;;40.10;12.60;;;6.20;99.90;;;;;;5045762;28;20063;-82
2022/01/13 05:46:08;;;;;;;50.13;15.27;;;6.30;99.90;;;;;;5055697;28;20052;-82
2022/01/13 05:48:34;;;;;;;44.97;15.30;;;6.20;99.90;;;;;;5055671;28;20090;-82
2022/01/13 05:51:00;;;;;;;53.38;14.80;;;6.40;99.90;;;;;;5055239;28;20092;-83
2022/01/13 05:53:26;;;;;;;51.20;15.27;;;6.40;99.90;;;;;;5056510;28;20024;-82
2022/01/13 05:55:51;;;;;;;42.10;14.07;;;6.30;99.90;;;;;;5054776;28;20036;-82
2022/01/13 05:58:17;;;;;;;60.13;14.38;;;6.30;99.90;;;;;;5054598;28;20021;-83
2022/01/13 06:00:43;;;;;;;55.83;14.80;;;6.40;99.90;;;;;;5046647;28;20025;-82
2022/01/13 06:03:10;;;;;;;49.63;14.48;;;6.30;99.90;;;;;;5053557;28;20029;-81
2022/01/13 06:05:35;;;;;;;48.60;14.68;;;6.50;99.90;;;;;;5033144;28;20036;-82
2022/01/13 06:08:01;;;;;;;44.38;14.20;;;6.40;99.90;;;;;;5039220;28;20092;-82
2022/01/13 06:10:26;;;;;;;44.55;14.48;;;6.30;99.90;;;;;;5053009;28;20052;-82
2022/01/13 06:12:53;;;;;;;42.65;14.40;;;6.40;99.90;;;;;;5054263;28;20370;-82
2022/01/13 06:15:21;;;;;;;39.97;14.27;;;6.30;99.90;;;;;;5054022;28;20094;-82
2022/01/13 06:17:49;;;;;;;35.30;13.70;;;6.40;99.90;;;;;;5039194;28;20045;-82
2022/01/13 06:20:15;;;;;;;47.40;13.60;;;6.60;99.90;;;;;;5044220;28;20032;-82
2022/01/13 06:22:47;;;;;;;65.18;14.93;;;6.60;99.90;;;;;;5053803;28;20151;-82
2022/01/13 06:25:15;;;;;;;61.53;15.82;;;6.70;99.90;;;;;;5047723;28;20494;-83
2022/01/13 06:28:01;;;;;;;57.50;15.48;;;6.70;99.90;;;;;;5042168;28;20473;-82
2022/01/13 06:30:26;;;;;;;41.95;14.55;;;6.80;99.90;;;;;;5038404;28;20047;-82
2022/01/13 06:32:52;;;;;;;57.42;16.55;;;6.60;99.90;;;;;;5048422;28;20354;-82
2022/01/13 06:35:17;;;;;;;49.13;15.20;;;6.70;99.90;;;;;;5031075;28;20041;-82
2022/01/13 06:37:43;;;;;;;58.20;16.13;;;6.50;99.90;;;;;;5045705;28;20017;-82
2022/01/13 06:40:11;;;;;;;51.53;15.32;;;6.60;99.90;;;;;;5050149;28;20490;-82
2022/01/13 06:42:38;;;;;;;51.65;16.38;;;6.80;99.90;;;;;;5039387;28;20036;-82
2022/01/13 06:45:05;;;;;;;46.63;15.07;;;6.50;99.90;;;;;;5031319;28;20034;-82
2022/01/13 06:47:31;;;;;;;46.13;16.42;;;6.70;99.90;;;;;;5031868;28;20022;-82
2022/01/13 06:49:57;;;;;;;44.50;15.02;;;6.60;99.90;;;;;;5031594;28;20116;-82
2022/01/13 06:52:22;;;;;;;46.85;15.23;;;6.70;99.90;;;;;;5050408;28;20447;-82
2022/01/13 06:54:48;;;;;;;44.85;15.63;;;6.80;99.90;;;;;;5049294;28;20029;-82
2022/01/13 06:57:14;;;;;;;45.40;15.88;;;6.80;99.90;;;;;;5051268;28;20025;-82
2022/01/13 06:59:41;;;;;;;49.58;15.95;;;7.10;99.90;;;;;;5040121;28;20371;-84
2022/01/13 07:02:07;;;;;;;46.75;15.73;;;7.10;99.90;;;;;;5031989;28;20072;-83
2022/01/13 07:04:33;;;;;;;45.63;15.15;;;6.90;99.90;;;;;;5031170;28;20025;-84
2022/01/13 07:06:59;;;;;;;47.80;16.35;;;6.90;99.90;;;;;;5031690;28;20474;-84
2022/01/13 07:09:24;;;;;;;40.20;16.73;;;7.10;99.90;;;;;;5036394;28;20052;-84
2022/01/13 07:11:51;;;;;;;45.20;15.82;;;7.20;99.90;;;;;;5041934;28;20017;-83
2022/01/13 07:14:16;;;;;;;47.08;16.20;;;7.20;99.90;;;;;;5033535;28;20053;-84
2022/01/13 07:16:42;;;;;;;44.38;16.52;;;7.20;99.90;;;;;;5030671;28;20087;-84
2022/01/13 07:19:10;;;;;;;48.53;16.45;;;7.20;99.90;;;;;;5031099;28;20028;-83
2022/01/13 07:21:38;;;;;;;49.33;17.60;;;7.20;99.90;;;;;;5032530;28;20024;-84
2022/01/13 07:24:04;;;;;;;45.67;15.25;;;7.10;99.90;;;;;;5051068;28;20021;-84
2022/01/13 07:26:29;;;;;;;45.05;16.13;;;7.30;99.90;;;;;;5050868;28;20091;-83
2022/01/13 07:28:55;;;;;;;40.50;15.88;;;7.30;99.90;;;;;;5050242;28;20201;-84
2022/01/13 07:31:21;;;;;;;48.13;15.70;;;7.30;99.90;;;;;;5050455;28;20029;-84
2022/01/13 07:33:47;;;;;;;49.45;17.33;;;7.10;99.90;;;;;;5045801;28;20025;-81
2022/01/13 07:36:13;;;;;;;40.75;15.63;;;7.20;99.90;;;;;;5050767;28;20029;-82
2022/01/13 07:38:38;;;;;;;41.97;15.98;;;7.30;99.90;;;;;;5051048;28;20028;-81
2022/01/13 07:41:04;;;;;;;51.25;15.88;;;7.30;99.90;;;;;;5050892;28;20034;-81
2022/01/13 07:43:31;;;;;;;38.90;15.63;;;7.20;99.90;;;;;;5050515;28;20021;-81
2022/01/13 07:45:56;;;;;;;40.70;16.35;;;7.30;99.90;;;;;;5051046;28;20033;-82
2022/01/13 07:48:23;;;;;;;50.10;16.80;;;7.30;99.90;;;;;;5054352;28;20025;-81
2022/01/13 07:50:49;;;;;;;49.40;17.02;;;7.40;99.90;;;;;;5054733;28;20028;-81
2022/01/13 07:53:15;;;;;;;40.63;16.25;;;7.50;99.90;;;;;;5054781;28;20079;-81
2022/01/13 07:55:42;;;;;;;43.80;16.17;;;7.40;99.90;;;;;;5054315;28;20473;-82
2022/01/13 07:58:08;;;;;;;43.55;15.73;;;7.50;99.90;;;;;;5054777;28;20075;-81
2022/01/13 08:00:34;;;;;;;37.20;15.57;;;7.30;99.90;;;;;;5054540;28;20029;-81
2022/01/13 08:03:00;;;;;;;44.08;16.55;;;7.50;99.90;;;;;;5044614;28;20378;-81
2022/01/13 08:05:25;;;;;;;49.08;15.32;;;7.40;99.90;;;;;;5047033;28;20489;-82
2022/01/13 08:07:51;;;;;;;44.88;16.02;;;7.40;99.90;;;;;;5054655;28;20021;-82
2022/01/13 08:10:16;;;;;;;48.78;14.82;;;7.60;99.90;;;;;;5052993;28;20519;-83
2022/01/13 08:12:42;;;;;;;34.80;14.45;;;7.60;99.90;;;;;;5054397;28;20029;-83
2022/01/13 08:15:12;;;;;;;38.20;15.13;;;7.50;99.90;;;;;;5054275;28;20499;-83
2022/01/13 08:20:23;;;;;;;43.40;16.00;;;7.50;99.90;;;;;;5044163;28;20231;-83
2022/01/13 08:22:49;;;;;;;43.15;15.25;;;7.60;99.90;;;;;;5049827;28;20064;-83
2022/01/13 08:25:17;;;;;;;33.55;14.45;;;7.50;99.90;;;;;;5053471;28;20068;-83
2022/01/13 08:27:43;;;;;;;36.15;15.60;;;7.50;99.90;;;;;;5053948;28;20017;-82
2022/01/13 08:30:09;;;;;;;44.55;16.00;;;7.40;99.90;;;;;;5053892;28;20013;-83
2022/01/13 08:32:34;;;;;;;44.00;14.68;;;7.60;99.90;;;;;;5053455;28;20036;-83
2022/01/13 08:35:00;;;;;;;32.45;13.20;;;7.40;99.90;;;;;;5053819;28;20025;-82
2022/01/13 08:37:26;;;;;;;33.67;14.85;;;7.50;99.90;;;;;;5053559;28;20056;-83
2022/01/13 08:39:51;;;;;;;36.80;15.18;;;7.50;99.90;;;;;;5053782;28;20106;-82
2022/01/13 08:42:17;;;;;;;40.72;15.50;;;7.60;99.90;;;;;;5041063;28;20491;-83
2022/01/13 08:44:42;;;;;;;36.97;14.15;;;7.60;99.90;;;;;;5053091;28;20032;-82
2022/01/13 08:47:09;;;;;;;42.67;15.70;;;7.70;99.90;;;;;;5053545;28;20479;-83
2022/01/13 08:49:36;;;;;;;38.72;14.85;;;7.60;99.90;;;;;;5053820;28;20017;-82
2022/01/13 08:52:03;;;;;;;37.35;14.32;;;7.70;99.90;;;;;;5053768;28;20017;-82
2022/01/13 08:54:29;;;;;;;35.05;14.73;;;7.60;99.90;;;;;;5051975;28;20443;-82
2022/01/13 08:56:56;;;;;;;35.25;14.93;;;7.80;99.90;;;;;;5032537;28;20022;-82
2022/01/13 08:59:22;;;;;;;35.42;16.58;;;7.60;99.90;;;;;;5035079;28;20025;-82
2022/01/13 09:01:47;;;;;;;34.60;15.00;;;7.80;99.90;;;;;;5039028;28;20017;-83
2022/01/13 09:04:13;;;;;;;44.92;15.48;;;7.80;99.90;;;;;;5046494;28;20465;-83
2022/01/13 09:06:38;;;;;;;34.75;14.95;;;7.90;99.90;;;;;;5045269;28;20033;-83
2022/01/13 09:09:04;;;;;;;42.40;15.95;;;7.90;99.90;;;;;;5033990;28;20021;-82
2022/01/13 09:11:29;;;;;;;28.83;15.07;;;8.10;99.90;;;;;;5041673;28;20036;-83
2022/01/13 09:13:57;;;;;;;38.17;15.43;;;7.90;99.90;;;;;;5043090;28;20241;-82
2022/01/13 09:16:29;;;;;;;38.55;16.05;;;8.00;99.90;;;;;;5045594;28;20044;-82
2022/01/13 09:21:20;;;;;;;37.17;15.95;;;8.40;99.90;;;;;;5052415;28;20445;-82
2022/01/13 09:23:46;;;;;;;39.53;18.27;;;8.40;99.90;;;;;;5052708;28;20029;-82
2022/01/13 09:26:12;;;;;;;41.28;17.13;;;8.40;99.90;;;;;;5052231;28;20112;-82
2022/01/13 09:28:37;;;;;;;50.05;18.30;;;8.60;99.90;;;;;;5052083;28;20517;-81
2022/01/13 09:31:04;;;;;;;44.25;18.20;;;8.50;99.90;;;;;;5050941;28;20112;-82
2022/01/13 09:33:30;;;;;;;39.00;17.27;;;8.70;99.90;;;;;;5051747;28;20490;-82
2022/01/13 09:35:56;;;;;;;37.75;17.00;;;8.50;99.90;;;;;;5052266;28;20029;-82
2022/01/13 09:38:21;;;;;;;32.28;14.55;;;8.60;99.90;;;;;;5057424;28;20041;-82
2022/01/13 09:40:52;;;;;;;41.58;16.33;;;8.40;99.90;;;;;;5059345;28;20028;-82
2022/01/13 09:43:20;;;;;;;;;;;8.40;99.90;;;;;;5047348;28;20017;-81
2022/01/13 09:45:46;;;;;;;37.45;13.95;;;8.60;99.90;;;;;;5041490;28;19932;-81
2022/01/13 09:48:13;;;;;;;41.30;16.67;;;8.50;99.90;;;;;;5052439;28;20036;-82
2022/01/13 09:50:39;;;;;;;39.58;16.23;;;8.70;99.90;;;;;;5057905;28;20491;-82
2022/01/13 09:53:04;;;;;;;38.00;16.60;;;8.60;99.90;;;;;;5046084;28;20021;-81
2022/01/13 09:55:30;;;;;;;41.40;16.00;;;8.50;99.90;;;;;;5035836;28;20060;-82
2022/01/13 09:58:00;;;;;;;35.00;15.52;;;8.70;99.90;;;;;;5034919;28;20044;-81
2022/01/13 10:00:26;;;;;;;34.17;13.48;;;8.70;99.90;;;;;;5036594;28;20540;-82
2022/01/13 10:02:53;;;;;;;37.67;15.18;;;8.60;99.90;;;;;;5054012;28;20029;-82
2022/01/13 10:05:20;;;;;;;39.22;15.75;;;8.50;99.90;;;;;;5056154;28;20033;-82
2022/01/13 10:07:47;;;;;;;42.50;16.55;;;8.50;99.90;;;;;;5055545;28;20463;-82
2022/01/13 10:10:15;;;;;;;35.00;14.52;;;8.50;99.90;;;;;;5054965;28;20465;-82
2022/01/13 10:12:43;;;;;;;34.25;15.00;;;8.40;99.90;;;;;;5056600;28;20108;-82
2022/01/13 10:18:04;;;;;;;39.78;14.48;;;8.60;99.90;;;;;;5057277;28;20538;-82
2022/01/13 10:20:31;;;;;;;38.67;16.23;;;8.60;99.90;;;;;;5056589;28;20090;-81
2022/01/13 10:23:06;;;;;;;43.67;16.25;;;8.50;99.90;;;;;;5054489;28;20081;-82
2022/01/13 10:25:37;;;;;;;37.08;14.23;;;8.60;99.90;;;;;;5052422;28;20068;-82
2022/01/13 10:28:18;;;;;;;33.90;14.75;;;8.60;99.90;;;;;;5054190;28;20032;-81
2022/01/13 10:30:46;;;;;;;35.22;15.68;;;8.70;99.90;;;;;;5055721;28;20017;-82
2022/01/13 10:33:16;;;;;;;38.15;15.07;;;8.80;99.90;;;;;;5054670;28;20041;-82
2022/01/13 10:35:42;;;;;;;31.97;14.13;;;8.70;99.90;;;;;;5054655;28;20276;-82
2022/01/13 10:38:08;;;;;;;44.17;17.02;;;8.70;99.90;;;;;;5055419;28;20075;-81
2022/01/13 10:40:39;;;;;;;32.15;14.73;;;8.60;99.90;;;;;;5055957;28;20021;-81
2022/01/13 10:43:07;;;;;;;35.42;14.48;;;8.70;99.90;;;;;;5045603;28;20010;-82
2022/01/13 10:45:57;;;;;;;28.58;14.35;;;8.70;99.90;;;;;;5033897;28;20112;-81
2022/01/13 10:48:30;;;;;;;30.38;13.18;;;9.00;99.90;;;;;;5038705;28;20087;-80
2022/01/13 10:51:06;;;;;;;29.42;14.40;;;8.80;99.90;;;;;;5034086;28;20021;-80
2022/01/13 10:53:42;;;;;;;34.08;14.20;;;8.90;99.90;;;;;;5032249;28;20385;-80
2022/01/13 10:56:10;;;;;;;37.17;15.15;;;8.90;99.90;;;;;;5036135;28;20076;-81
2022/01/13 10:58:49;;;;;;;34.05;15.82;;;9.00;99.90;;;;;;5031799;28;20068;-82
2022/01/13 11:01:15;;;;;;;35.90;13.68;;;9.20;99.90;;;;;;5036271;28;20160;-80
2022/01/13 11:03:43;;;;;;;33.10;14.82;;;9.40;99.90;;;;;;5034589;28;20030;-81
2022/01/13 11:06:10;;;;;;;32.10;14.57;;;9.60;99.90;;;;;;5038972;28;20033;-81
2022/01/13 11:08:44;;;;;;;34.38;14.70;;;9.60;99.90;;;;;;5042326;28;20025;-81
2022/01/13 11:11:45;;;;;;;33.33;16.00;;;9.60;99.90;;;;;;5042982;28;20064;-81
2022/01/13 11:14:21;;;;;;;29.48;14.90;;;9.70;99.90;;;;;;5034606;28;20017;-81
2022/01/13 11:16:47;;;;;;;36.50;16.58;;;9.70;99.90;;;;;;5043452;28;20056;-81
2022/01/13 11:19:15;;;;;;;36.25;15.27;;;9.70;99.90;;;;;;5034365;28;20056;-80
2022/01/13 11:21:41;;;;;;;36.75;16.10;;;9.60;99.90;;;;;;5034881;28;20022;-81
2022/01/13 11:24:07;;;;;;;34.42;15.10;;;9.60;99.90;;;;;;5042304;28;20095;-81
2022/01/13 11:26:34;;;;;;;34.10;15.23;;;9.60;99.90;;;;;;5038124;28;20068;-81
2022/01/13 11:29:00;;;;;;;31.80;14.05;;;9.70;99.90;;;;;;5044535;28;20026;-81
2022/01/13 11:31:26;;;;;;;41.47;14.80;;;9.70;99.90;;;;;;5039342;28;20024;-81
2022/01/13 11:33:52;;;;;;;31.80;14.48;;;9.70;99.90;;;;;;5038203;28;20025;-81
2022/01/13 11:36:19;;;;;;;30.08;12.45;;;9.60;99.90;;;;;;5043248;28;20014;-81
2022/01/13 11:38:56;;;;;;;32.75;13.15;;;9.60;99.90;;;;;;5042282;28;20037;-80
2022/01/13 11:41:21;;;;;;;31.55;13.60;;;9.60;99.90;;;;;;5042817;28;20076;-81
2022/01/13 11:43:47;;;;;;;31.70;11.88;;;9.60;99.90;;;;;;5037580;28;20052;-81
2022/01/13 11:46:24;;;;;;;29.65;12.80;;;9.60;99.90;;;;;;5042546;28;20067;-81
2022/01/13 11:49:15;;;;;;;29.77;12.27;;;9.70;99.90;;;;;;5040461;28;20107;-81
2022/01/13 11:52:11;;;;;;;29.52;13.18;;;9.60;99.90;;;;;;5040466;28;20025;-80
2022/01/13 11:54:38;;;;;;;25.98;12.20;;;9.60;99.90;;;;;;5041102;28;20028;-80
2022/01/13 11:57:13;;;;;;;30.83;12.75;;;9.80;99.90;;;;;;5058254;28;20115;-80
2022/01/13 11:59:39;;;;;;;33.58;13.50;;;9.70;99.90;;;;;;5059725;28;20032;-81
2022/01/13 12:02:31;;;;;;;26.13;11.85;;;10.00;99.90;;;;;;5059720;28;20021;-81
2022/01/13 12:05:14;;;;;;;31.75;12.95;;;10.00;1.00;;;;;;5059667;28;20703;-81
2022/01/13 12:07:49;;;;;;;31.23;12.45;;;10.00;1.00;;;;;;5060120;28;20047;-81
2022/01/13 12:10:21;;;;;;;30.70;14.95;;;10.00;1.00;;;;;;5057277;28;20409;-81
2022/01/13 12:12:47;;;;;;;47.15;17.23;;;10.00;1.00;;;;;;5045004;28;20025;-81
2022/01/13 12:15:15;;;;;;;39.22;15.60;;;10.10;1.00;;;;;;5040609;28;20025;-81
2022/01/13 12:17:52;;;;;;;23.40;13.52;;;10.00;99.90;;;;;;5041073;28;20017;-81
2022/01/13 12:20:39;;;;;;;34.10;11.90;;;10.00;1.00;;;;;;5038077;28;20429;-81
2022/01/13 12:23:26;;;;;;;21.58;10.98;;;10.10;99.90;;;;;;5037020;28;20025;-81
2022/01/13 12:25:51;;;;;;;23.30;9.75;;;10.00;99.90;;;;;;5037151;28;20079;-81
2022/01/13 12:28:18;;;;;;;26.23;10.77;;;10.00;99.90;;;;;;5038361;28;20026;-81
2022/01/13 12:30:45;;;;;;;25.75;10.40;;;9.90;99.90;;;;;;5058013;28;20112;-81
2022/01/13 12:33:11;;;;;;;24.80;10.45;;;9.90;99.90;;;;;;5056531;28;20104;-81
2022/01/13 12:35:37;;;;;;;19.73;10.18;;;10.10;99.90;;;;;;5055066;28;20059;-81
2022/01/13 12:38:02;;;;;;;29.17;10.90;;;10.10;99.90;;;;;;5054130;28;20435;-81
2022/01/13 12:40:34;;;;;;;29.65;10.82;;;10.00;99.90;;;;;;5055895;28;20082;-81
2022/01/13 12:43:36;;;;;;;28.23;10.68;;;10.10;99.90;;;;;;5055021;28;20035;-80
2022/01/13 12:46:15;;;;;;;23.58;11.15;;;10.10;99.90;;;;;;5055263;28;20036;-81
2022/01/13 12:48:49;;;;;;;21.83;11.32;;;10.10;99.90;;;;;;5055046;28;20029;-81
2022/01/13 12:51:18;;;;;;;26.15;11.20;;;10.20;99.90;;;;;;5053776;28;20392;-81
2022/01/13 12:53:44;;;;;;;25.77;11.05;;;10.20;99.90;;;;;;5054612;28;20025;-81
2022/01/13 12:56:14;;;;;;;26.33;11.52;;;10.10;99.90;;;;;;5054721;28;20017;-81
2022/01/13 12:58:45;;;;;;;31.88;11.10;;;10.10;99.90;;;;;;5053341;28;20477;-80
2022/01/13 13:01:14;;;;;;;23.75;10.82;;;10.00;99.90;;;;;;5053952;28;20131;-81
2022/01/13 13:03:40;;;;;;;30.10;11.25;;;10.10;99.90;;;;;;5054710;28;20469;-80
2022/01/13 13:06:10;;;;;;;26.27;10.85;;;9.90;99.90;;;;;;5054583;28;20029;-81
2022/01/13 13:08:36;;;;;;;27.77;10.38;;;9.80;99.90;;;;;;5054567;28;20044;-81
2022/01/13 13:11:02;;;;;;;24.77;10.55;;;9.70;99.90;;;;;;5054070;28;20485;-81